Time;durP1;ratioP1;P1;durP2;ratioP2;P2;SDS_P1;SDS_P2;PMS_P1;PMS_P2;Temp;Humidity;BMP_temperature;BMP_pressure;BME280_temperature;BME280_humidity;BME280_pressure;Samples;Min_cycle;Max_cycle;Signal;HPM_P1;HPM_P2
2021/07/26 00:00:46;;;;;;;11.77;10.52;;;20.00;72.00;;;;;;5066136;28;20028;-77
2021/07/26 00:03:12;;;;;;;11.40;10.40;;;20.00;72.10;;;;;;5066258;28;20037;-77
2021/07/26 00:05:38;;;;;;;10.43;9.52;;;19.90;71.90;;;;;;5066357;28;20093;-77
2021/07/26 00:08:05;;;;;;;10.32;9.40;;;19.90;72.00;;;;;;5048561;28;20032;-77
2021/07/26 00:10:33;;;;;;;11.15;9.82;;;19.80;71.90;;;;;;5066360;28;20082;-77
2021/07/26 00:12:59;;;;;;;10.70;9.70;;;19.80;71.90;;;;;;5066437;28;20473;-76
2021/07/26 00:15:26;;;;;;;10.85;9.75;;;19.80;71.90;;;;;;5065554;28;20047;-75
2021/07/26 00:17:51;;;;;;;10.80;9.70;;;19.70;71.80;;;;;;5066202;28;20406;-77
2021/07/26 00:20:17;;;;;;;10.73;9.73;;;19.70;71.90;;;;;;5066099;28;20033;-79
2021/07/26 00:22:44;;;;;;;12.07;9.93;;;19.70;72.00;;;;;;5065003;28;20111;-77
2021/07/26 00:25:10;;;;;;;11.10;10.00;;;19.70;72.10;;;;;;5064528;28;20120;-76
2021/07/26 00:27:36;;;;;;;10.02;9.10;;;19.60;72.00;;;;;;5064296;28;20051;-77
2021/07/26 00:30:02;;;;;;;10.63;9.55;;;19.60;72.00;;;;;;5064198;28;20036;-76
2021/07/26 00:32:29;;;;;;;10.32;9.32;;;19.60;72.10;;;;;;5065775;28;20036;-77
2021/07/26 00:34:56;;;;;;;10.38;9.27;;;19.60;72.10;;;;;;5065113;28;20058;-77
2021/07/26 00:37:29;;;;;;;10.38;9.38;;;19.50;72.00;;;;;;5066482;28;20077;-79
2021/07/26 00:39:55;;;;;;;10.80;9.68;;;19.50;72.10;;;;;;5066507;28;20047;-79
2021/07/26 00:42:21;;;;;;;10.60;9.57;;;19.50;72.10;;;;;;5066074;28;20037;-77
2021/07/26 00:44:47;;;;;;;11.25;10.13;;;19.50;72.20;;;;;;5065491;28;20036;-77
2021/07/26 00:47:13;;;;;;;10.35;9.35;;;19.40;72.10;;;;;;5064811;28;20028;-76
2021/07/26 00:49:39;;;;;;;10.40;9.40;;;19.40;72.10;;;;;;5065499;28;20020;-79
2021/07/26 00:52:05;;;;;;;10.30;9.30;;;19.40;72.20;;;;;;5066071;28;20059;-75
2021/07/26 00:54:35;;;;;;;11.45;9.30;;;19.40;72.30;;;;;;5064285;28;20083;-76
2021/07/26 00:57:03;;;;;;;11.15;10.15;;;19.40;72.30;;;;;;5066292;28;20161;-78
2021/07/26 00:59:30;;;;;;;10.07;9.02;;;19.30;72.20;;;;;;5063830;28;20039;-77
2021/07/26 01:01:57;;;;;;;9.40;8.60;;;19.30;72.20;;;;;;5064511;28;20404;-75
2021/07/26 01:04:23;;;;;;;10.93;9.82;;;19.30;72.30;;;;;;5065444;28;20047;-74
2021/07/26 01:06:49;;;;;;;10.35;9.45;;;19.20;72.10;;;;;;5063822;28;20036;-74
2021/07/26 01:09:15;;;;;;;9.77;8.77;;;19.20;72.10;;;;;;5065479;28;20044;-74
2021/07/26 01:11:43;;;;;;;10.35;9.40;;;19.20;72.20;;;;;;5065684;28;20033;-73
2021/07/26 01:14:16;;;;;;;10.65;9.65;;;19.20;72.30;;;;;;5064989;28;20087;-75
2021/07/26 01:16:43;;;;;;;10.25;9.25;;;19.10;72.20;;;;;;5064320;28;20037;-74
2021/07/26 01:19:09;;;;;;;9.73;8.75;;;19.10;72.20;;;;;;5065369;28;20024;-74
2021/07/26 01:21:35;;;;;;;10.68;9.60;;;19.10;72.20;;;;;;5065538;28;20111;-80
2021/07/26 01:24:02;;;;;;;10.57;9.68;;;19.10;72.20;;;;;;5065718;28;20029;-81
2021/07/26 01:26:29;;;;;;;11.15;10.02;;;19.00;72.10;;;;;;5065338;28;20500;-81
2021/07/26 01:28:58;;;;;;;9.95;9.15;;;19.00;72.10;;;;;;5065025;28;20541;-82
2021/07/26 01:31:24;;;;;;;10.60;9.50;;;19.00;72.20;;;;;;5064391;28;20127;-80
2021/07/26 01:33:52;;;;;;;11.18;9.50;;;19.00;72.20;;;;;;5067178;28;20025;-80
2021/07/26 01:36:19;;;;;;;10.65;9.68;;;18.90;72.60;;;;;;5082691;28;20109;-82
2021/07/26 01:38:46;;;;;;;9.93;8.93;;;18.90;72.20;;;;;;5066903;28;20507;-81
2021/07/26 01:41:18;;;;;;;10.80;9.32;;;18.90;72.20;;;;;;5069887;28;20040;-81
2021/07/26 01:44:06;;;;;;;10.02;9.10;;;18.80;72.10;;;;;;5069545;28;20056;-79
2021/07/26 01:46:50;;;;;;;10.75;9.52;;;18.80;72.20;;;;;;5059261;28;20127;-80
2021/07/26 01:49:37;;;;;;;11.75;10.65;;;18.80;72.20;;;;;;5053771;28;20063;-80
2021/07/26 01:52:05;;;;;;;12.70;10.15;;;18.70;72.10;;;;;;5054068;28;20033;-80
2021/07/26 01:54:31;;;;;;;11.82;10.63;;;18.70;72.10;;;;;;5053518;28;20025;-77
2021/07/26 01:56:57;;;;;;;11.68;10.35;;;18.70;72.10;;;;;;5053755;28;20388;-79
2021/07/26 01:59:24;;;;;;;14.65;9.80;;;18.60;72.10;;;;;;5053355;28;20059;-80
2021/07/26 02:01:51;;;;;;;10.35;9.38;;;18.60;72.10;;;;;;5053449;28;20063;-80
2021/07/26 02:04:18;;;;;;;10.48;9.45;;;18.60;72.20;;;;;;5054039;28;20060;-80
2021/07/26 02:06:44;;;;;;;10.95;9.95;;;18.60;72.30;;;;;;5053093;28;20029;-79
2021/07/26 02:09:10;;;;;;;11.25;10.05;;;18.60;72.30;;;;;;5053181;28;20138;-77
2021/07/26 02:11:36;;;;;;;11.20;9.70;;;18.60;72.30;;;;;;5051907;28;20029;-76
2021/07/26 02:14:09;;;;;;;11.68;9.60;;;18.50;72.20;;;;;;5052459;28;20035;-76
2021/07/26 02:16:36;;;;;;;11.52;10.30;;;18.50;72.20;;;;;;5053319;28;20033;-78
2021/07/26 02:19:02;;;;;;;10.50;9.60;;;18.50;72.20;;;;;;5053055;28;20108;-78
2021/07/26 02:21:28;;;;;;;10.23;9.27;;;18.40;72.10;;;;;;5051790;28;20419;-78
2021/07/26 02:23:54;;;;;;;10.68;9.68;;;18.40;72.30;;;;;;5052869;28;20029;-76
2021/07/26 02:26:20;;;;;;;11.25;8.93;;;18.40;72.30;;;;;;5053098;28;20040;-76
2021/07/26 02:28:46;;;;;;;11.85;10.07;;;18.40;72.30;;;;;;5052332;28;20068;-77
2021/07/26 02:31:12;;;;;;;10.88;9.90;;;18.40;72.40;;;;;;5053427;28;20174;-78
2021/07/26 02:33:38;;;;;;;10.50;9.70;;;18.40;72.50;;;;;;5053046;28;20112;-76
2021/07/26 02:36:04;;;;;;;11.52;10.45;;;18.40;72.50;;;;;;5068054;28;20094;-76
2021/07/26 02:38:30;;;;;;;10.55;9.55;;;18.40;72.50;;;;;;5051755;28;20090;-77
2021/07/26 02:40:56;;;;;;;10.90;9.93;;;18.40;72.50;;;;;;5052591;28;20033;-76
2021/07/26 02:43:22;;;;;;;11.50;10.32;;;18.40;72.50;;;;;;5052399;28;20032;-76
2021/07/26 02:45:48;;;;;;;13.70;11.40;;;18.40;72.60;;;;;;5067368;28;20170;-77
2021/07/26 02:48:14;;;;;;;14.10;10.43;;;18.40;72.60;;;;;;5051029;28;20522;-77
2021/07/26 02:50:41;;;;;;;11.20;10.18;;;18.30;72.40;;;;;;5051215;28;20549;-78
2021/07/26 02:53:07;;;;;;;11.73;9.80;;;18.30;72.40;;;;;;5051107;28;20074;-78
2021/07/26 02:55:33;;;;;;;12.18;11.07;;;18.30;72.40;;;;;;5051872;28;20045;-77
2021/07/26 02:57:59;;;;;;;10.77;9.77;;;18.30;72.40;;;;;;5051799;28;20392;-76
2021/07/26 03:00:25;;;;;;;11.10;9.93;;;18.30;72.50;;;;;;5052010;28;20036;-77
2021/07/26 03:02:51;;;;;;;11.32;10.25;;;18.20;72.30;;;;;;5051169;28;20107;-78
2021/07/26 03:05:17;;;;;;;10.40;9.48;;;18.20;72.30;;;;;;5050678;28;20283;-76
2021/07/26 03:07:43;;;;;;;11.27;10.20;;;18.20;72.30;;;;;;5051569;28;20067;-78
2021/07/26 03:10:09;;;;;;;10.93;9.88;;;18.10;72.20;;;;;;5052276;28;20040;-78
2021/07/26 03:12:35;;;;;;;11.40;9.93;;;18.20;72.40;;;;;;5051888;28;20438;-76
2021/07/26 03:15:01;;;;;;;11.20;10.10;;;18.20;72.50;;;;;;5067375;28;20175;-76
2021/07/26 03:17:27;;;;;;;11.30;10.25;;;18.10;72.30;;;;;;5051732;28;20447;-77
2021/07/26 03:19:57;;;;;;;13.15;10.38;;;18.10;72.40;;;;;;5072960;28;20037;-76
2021/07/26 03:22:46;;;;;;;10.85;9.85;;;18.10;72.50;;;;;;5057008;28;20302;-76
2021/07/26 03:25:12;;;;;;;13.00;10.18;;;18.10;72.60;;;;;;5072749;28;20047;-76
2021/07/26 03:27:38;;;;;;;11.75;10.45;;;18.10;72.50;;;;;;5056689;28;20028;-76
2021/07/26 03:30:05;;;;;;;11.27;10.20;;;18.10;72.60;;;;;;5057601;28;20063;-77
2021/07/26 03:32:31;;;;;;;13.25;10.70;;;18.10;72.60;;;;;;5058296;28;20021;-75
2021/07/26 03:34:57;;;;;;;11.88;10.20;;;18.10;72.70;;;;;;5058074;28;20063;-78
2021/07/26 03:37:23;;;;;;;11.82;10.68;;;18.10;72.70;;;;;;5056026;28;20029;-77
2021/07/26 03:39:49;;;;;;;12.38;11.10;;;18.10;72.70;;;;;;5057425;28;20032;-76
2021/07/26 03:42:15;;;;;;;11.70;10.50;;;18.10;72.70;;;;;;5056623;28;20033;-77
2021/07/26 03:44:41;;;;;;;11.85;10.70;;;18.10;72.70;;;;;;5056614;28;20118;-76
2021/07/26 03:47:07;;;;;;;11.85;10.75;;;18.10;72.70;;;;;;5057555;28;20033;-77
2021/07/26 03:49:33;;;;;;;12.55;11.10;;;18.10;72.70;;;;;;5057507;28;20037;-77
2021/07/26 03:51:59;;;;;;;12.25;11.02;;;18.10;72.70;;;;;;5056766;28;20060;-77
2021/07/26 03:54:25;;;;;;;11.07;10.18;;;18.00;72.50;;;;;;5055957;28;20057;-77
2021/07/26 03:56:55;;;;;;;10.90;9.80;;;18.10;72.70;;;;;;5060067;28;20041;-76
2021/07/26 03:59:21;;;;;;;11.52;10.45;;;18.10;72.70;;;;;;5054678;28;20036;-78
2021/07/26 04:01:47;;;;;;;12.30;10.50;;;18.00;72.60;;;;;;5068918;28;20025;-77
2021/07/26 04:04:12;;;;;;;11.38;10.25;;;18.00;72.60;;;;;;5068255;28;20029;-77
2021/07/26 04:06:46;;;;;;;11.63;10.45;;;18.00;72.60;;;;;;5051340;28;20029;-77
2021/07/26 04:09:12;;;;;;;;;;;18.00;72.70;;;;;;5053500;28;20095;-77
2021/07/26 04:11:39;;;;;;;12.10;10.88;;;18.00;72.50;;;;;;5068364;28;19956;-77
2021/07/26 04:14:07;;;;;;;11.95;10.82;;;18.00;72.50;;;;;;5053332;28;20037;-75
2021/07/26 04:16:33;;;;;;;10.88;9.98;;;17.90;72.40;;;;;;5052726;28;20037;-76
2021/07/26 04:19:01;;;;;;;12.45;10.90;;;17.90;72.50;;;;;;5053556;28;20029;-76
2021/07/26 04:21:31;;;;;;;11.50;10.38;;;17.90;72.50;;;;;;5052914;28;20061;-76
2021/07/26 04:23:57;;;;;;;12.32;11.02;;;17.90;72.70;;;;;;5052670;28;20517;-78
2021/07/26 04:26:23;;;;;;;13.23;10.80;;;17.90;72.60;;;;;;5053168;28;20475;-77
2021/07/26 04:28:50;;;;;;;11.23;10.13;;;17.90;72.70;;;;;;5052859;28;20040;-76
2021/07/26 04:31:16;;;;;;;12.32;10.95;;;17.90;72.70;;;;;;5052920;28;20032;-77
2021/07/26 04:33:42;;;;;;;12.93;11.73;;;17.90;72.80;;;;;;5052286;28;20021;-77
2021/07/26 04:36:08;;;;;;;12.25;11.00;;;17.90;72.80;;;;;;5052677;28;20116;-75
2021/07/26 04:38:33;;;;;;;13.98;10.75;;;17.90;72.80;;;;;;5052072;28;20094;-78
2021/07/26 04:40:59;;;;;;;12.43;11.38;;;17.90;73.30;;;;;;5049685;28;20133;-75
2021/07/26 04:43:26;;;;;;;12.80;11.60;;;17.90;72.80;;;;;;5050903;28;20029;-77
2021/07/26 04:45:52;;;;;;;13.75;11.60;;;17.90;72.80;;;;;;5051287;28;20098;-75
2021/07/26 04:48:17;;;;;;;11.50;10.45;;;17.90;72.80;;;;;;5063129;28;20029;-76
2021/07/26 04:50:43;;;;;;;12.82;10.55;;;17.90;72.90;;;;;;5046769;28;20033;-76
2021/07/26 04:53:09;;;;;;;13.13;11.38;;;18.00;73.10;;;;;;5046199;28;20067;-77
2021/07/26 04:55:35;;;;;;;12.68;11.38;;;17.90;72.90;;;;;;5045704;28;20120;-77
2021/07/26 04:58:01;;;;;;;12.98;11.77;;;17.90;72.90;;;;;;5052449;28;20072;-77
2021/07/26 05:00:29;;;;;;;12.73;11.48;;;17.90;72.90;;;;;;5066348;28;20424;-77
2021/07/26 05:02:55;;;;;;;12.02;10.93;;;17.90;72.80;;;;;;5064870;28;20029;-78
2021/07/26 05:05:22;;;;;;;14.43;11.93;;;17.90;72.80;;;;;;5065566;28;20028;-77
2021/07/26 05:07:48;;;;;;;12.23;11.00;;;17.90;72.90;;;;;;5065054;28;20412;-77
2021/07/26 05:10:14;;;;;;;14.25;12.55;;;17.90;72.90;;;;;;5064867;28;20036;-76
2021/07/26 05:12:42;;;;;;;14.23;12.93;;;18.00;73.10;;;;;;5065531;28;20179;-76
2021/07/26 05:15:09;;;;;;;12.05;11.02;;;18.00;73.10;;;;;;5066966;28;20510;-77
2021/07/26 05:17:36;;;;;;;15.88;11.85;;;18.00;73.10;;;;;;5068950;28;20032;-78
2021/07/26 05:20:02;;;;;;;14.45;12.57;;;18.00;73.10;;;;;;5080066;28;20028;-79
2021/07/26 05:22:28;;;;;;;12.50;11.30;;;18.00;73.10;;;;;;5084336;28;20479;-76
2021/07/26 05:24:54;;;;;;;13.95;12.60;;;18.00;73.10;;;;;;5069096;28;20031;-75
2021/07/26 05:27:21;;;;;;;13.40;12.20;;;18.10;73.20;;;;;;5068159;28;20032;-75
2021/07/26 05:29:47;;;;;;;13.43;12.07;;;18.10;73.20;;;;;;5068872;28;20020;-74
2021/07/26 05:32:13;;;;;;;13.07;11.65;;;18.10;73.20;;;;;;5068828;28;20032;-75
2021/07/26 05:34:39;;;;;;;13.50;12.27;;;18.10;73.20;;;;;;5067267;28;20431;-75
2021/07/26 05:37:05;;;;;;;14.05;12.52;;;18.10;73.20;;;;;;5067690;28;20082;-76
2021/07/26 05:39:31;;;;;;;13.20;11.90;;;18.20;73.30;;;;;;5068870;28;20024;-77
2021/07/26 05:41:59;;;;;;;13.40;11.98;;;18.20;73.30;;;;;;5068998;28;20033;-76
2021/07/26 05:44:25;;;;;;;16.65;12.45;;;18.20;73.30;;;;;;5067028;28;20032;-76
2021/07/26 05:46:51;;;;;;;14.75;13.20;;;18.20;73.30;;;;;;5069012;28;20052;-76
2021/07/26 05:49:17;;;;;;;14.57;13.25;;;18.20;73.30;;;;;;5068753;28;20029;-76
2021/07/26 05:51:43;;;;;;;13.48;11.95;;;18.20;73.30;;;;;;5068634;28;20468;-77
2021/07/26 05:54:09;;;;;;;12.85;11.65;;;18.20;73.30;;;;;;5068583;28;20036;-78
2021/07/26 05:56:42;;;;;;;14.25;12.70;;;18.20;73.30;;;;;;5068367;28;20040;-78
2021/07/26 05:59:09;;;;;;;14.70;12.93;;;18.20;73.30;;;;;;5068325;28;20101;-77
2021/07/26 06:01:48;;;;;;;14.65;13.10;;;18.30;73.40;;;;;;5069267;28;20036;-78
2021/07/26 06:04:19;;;;;;;15.20;13.25;;;18.30;73.40;;;;;;5067318;28;20530;-78
2021/07/26 06:06:47;;;;;;;13.48;12.18;;;18.30;73.40;;;;;;5068118;28;20028;-79
2021/07/26 06:09:14;;;;;;;13.88;12.48;;;18.30;73.50;;;;;;5066699;28;20056;-79
2021/07/26 06:11:41;;;;;;;13.45;12.23;;;18.30;73.40;;;;;;5068076;28;20412;-77
2021/07/26 06:14:08;;;;;;;14.25;12.93;;;18.40;73.60;;;;;;5049788;28;20048;-77
2021/07/26 06:16:34;;;;;;;14.50;13.05;;;18.40;73.50;;;;;;5051089;28;20064;-76
2021/07/26 06:19:08;;;;;;;14.07;12.75;;;18.50;73.60;;;;;;5067817;28;20105;-75
2021/07/26 06:21:39;;;;;;;14.32;12.93;;;18.60;73.80;;;;;;5070837;28;20363;-76
2021/07/26 06:24:05;;;;;;;14.60;13.10;;;18.60;73.70;;;;;;5081847;28;20376;-76
2021/07/26 06:26:31;;;;;;;14.93;13.38;;;18.70;73.80;;;;;;5067851;28;20081;-77
2021/07/26 06:28:56;;;;;;;14.07;12.75;;;18.80;73.90;;;;;;5067154;28;20067;-76
2021/07/26 06:31:22;;;;;;;18.48;13.35;;;18.90;74.00;;;;;;5064367;28;20032;-76
2021/07/26 06:33:48;;;;;;;15.13;13.57;;;18.90;73.90;;;;;;5056072;28;20072;-75
2021/07/26 06:36:14;;;;;;;15.52;13.93;;;19.00;74.00;;;;;;5073500;28;20047;-76
2021/07/26 06:38:40;;;;;;;14.20;12.50;;;19.10;74.20;;;;;;5061405;28;20353;-74
2021/07/26 06:41:06;;;;;;;16.45;13.48;;;19.10;74.10;;;;;;5067264;28;20040;-75
2021/07/26 06:43:32;;;;;;;13.95;12.65;;;19.20;74.20;;;;;;5066317;28;20369;-76
2021/07/26 06:45:58;;;;;;;16.50;14.90;;;19.20;74.20;;;;;;5066244;28;20450;-75
2021/07/26 06:48:24;;;;;;;16.40;13.88;;;19.30;74.40;;;;;;5065803;28;20028;-75
2021/07/26 06:50:51;;;;;;;15.35;13.80;;;19.30;74.30;;;;;;5067014;28;20070;-75
2021/07/26 06:53:19;;;;;;;15.05;13.52;;;19.40;75.00;;;;;;5065740;28;20113;-75
2021/07/26 06:55:45;;;;;;;15.13;13.32;;;19.40;74.40;;;;;;5082788;28;20032;-75
2021/07/26 06:58:10;;;;;;;15.35;13.75;;;19.50;74.50;;;;;;5065942;28;20029;-76
2021/07/26 07:00:36;;;;;;;15.50;13.45;;;19.60;74.70;;;;;;5067003;28;20040;-79
2021/07/26 07:03:02;;;;;;;22.85;20.40;;;19.60;74.60;;;;;;5066606;28;20037;-75
2021/07/26 07:05:28;;;;;;;31.48;28.02;;;19.70;75.20;;;;;;5066892;28;20040;-75
2021/07/26 07:07:54;;;;;;;33.42;29.83;;;19.80;74.70;;;;;;5066135;28;20076;-76
2021/07/26 07:10:20;;;;;;;34.53;31.08;;;19.80;74.50;;;;;;5064559;28;20127;-75
2021/07/26 07:12:49;;;;;;;38.28;34.30;;;19.90;74.70;;;;;;5066571;28;20031;-75
2021/07/26 07:15:19;;;;;;;39.58;35.47;;;19.90;74.70;;;;;;5066963;28;20476;-75
2021/07/26 07:17:48;;;;;;;36.17;32.92;;;20.00;75.00;;;;;;5066504;28;20064;-74
2021/07/26 07:20:16;;;;;;;40.40;36.00;;;20.00;75.00;;;;;;5066644;28;20318;-75
2021/07/26 07:22:42;;;;;;;39.95;35.83;;;20.00;75.10;;;;;;5066511;28;20105;-75
2021/07/26 07:25:09;;;;;;;38.92;34.97;;;20.00;75.10;;;;;;5066303;28;20403;-74
2021/07/26 07:27:36;;;;;;;39.63;34.88;;;20.00;75.10;;;;;;5066137;28;20498;-75
2021/07/26 07:30:02;;;;;;;39.78;35.83;;;20.10;75.30;;;;;;5066054;28;20028;-74
2021/07/26 07:32:28;;;;;;;39.63;35.45;;;20.20;75.40;;;;;;5066423;28;20043;-75
2021/07/26 07:34:54;;;;;;;39.70;35.47;;;20.20;75.30;;;;;;5066072;28;20048;-75
2021/07/26 07:37:21;;;;;;;38.70;34.90;;;20.30;75.40;;;;;;5063969;28;20037;-75
2021/07/26 07:39:47;;;;;;;38.22;34.42;;;20.40;75.60;;;;;;5066425;28;20037;-75
2021/07/26 07:42:12;;;;;;;38.70;34.67;;;20.60;75.80;;;;;;5064576;28;20458;-74
2021/07/26 07:44:38;;;;;;;37.90;34.13;;;20.90;76.20;;;;;;5066406;28;20119;-74
2021/07/26 07:47:05;;;;;;;43.03;35.20;;;21.10;76.20;;;;;;5066396;28;20041;-74
2021/07/26 07:49:31;;;;;;;40.00;36.05;;;21.40;76.10;;;;;;5065393;28;20071;-73
2021/07/26 07:51:57;;;;;;;37.90;34.30;;;21.70;75.90;;;;;;5065934;28;20059;-76
2021/07/26 07:54:23;;;;;;;38.17;34.35;;;21.90;75.50;;;;;;5066104;28;20134;-74
2021/07/26 07:56:51;;;;;;;40.33;36.15;;;22.10;75.30;;;;;;5064924;28;20037;-74
2021/07/26 07:59:18;;;;;;;38.03;34.03;;;22.30;75.10;;;;;;5065457;28;20028;-75
2021/07/26 08:01:44;;;;;;;35.83;32.28;;;22.60;75.00;;;;;;5064089;28;20039;-75
2021/07/26 08:04:10;;;;;;;35.17;31.73;;;22.90;74.90;;;;;;5059715;28;20433;-76
2021/07/26 08:06:40;;;;;;;39.05;34.33;;;23.10;74.50;;;;;;5056883;28;20072;-76
2021/07/26 08:09:07;;;;;;;37.30;33.72;;;23.30;74.10;;;;;;5069773;28;20371;-75
2021/07/26 08:11:33;;;;;;;35.70;32.30;;;23.50;73.90;;;;;;5066503;28;20506;-75
2021/07/26 08:13:59;;;;;;;35.72;32.33;;;23.80;73.90;;;;;;5065303;28;20052;-75
2021/07/26 08:16:25;;;;;;;37.83;33.83;;;24.00;73.60;;;;;;5064644;28;20040;-75
2021/07/26 08:18:51;;;;;;;37.70;34.10;;;24.20;73.20;;;;;;5064151;28;20409;-76
2021/07/26 08:21:17;;;;;;;39.72;35.35;;;24.40;73.00;;;;;;5064418;28;20046;-73
2021/07/26 08:23:43;;;;;;;35.92;32.22;;;24.50;72.40;;;;;;5079277;28;20074;-72
2021/07/26 08:26:12;;;;;;;36.97;33.40;;;24.70;72.10;;;;;;5045787;28;20032;-74
2021/07/26 08:28:38;;;;;;;34.78;31.42;;;24.90;71.80;;;;;;5054309;28;20032;-74
2021/07/26 08:31:04;;;;;;;35.55;31.95;;;25.10;71.40;;;;;;5065133;28;20035;-75
2021/07/26 08:33:30;;;;;;;34.33;30.80;;;25.20;70.80;;;;;;5063521;28;20028;-75
2021/07/26 08:35:57;;;;;;;34.08;30.52;;;25.30;70.40;;;;;;5065098;28;20036;-75
2021/07/26 08:38:23;;;;;;;35.85;32.30;;;25.50;70.00;;;;;;5065203;28;20247;-74
2021/07/26 08:40:50;;;;;;;33.40;30.38;;;25.70;69.40;;;;;;5065858;28;20040;-76
2021/07/26 08:43:15;;;;;;;31.60;28.50;;;25.70;68.90;;;;;;5047941;28;20060;-75
2021/07/26 08:45:41;;;;;;;30.38;27.48;;;25.80;68.30;;;;;;5064356;28;20506;-75
2021/07/26 08:48:10;;;;;;;29.75;26.98;;;26.00;68.20;;;;;;5064565;28;20036;-74
2021/07/26 08:50:37;;;;;;;29.67;26.52;;;26.10;67.80;;;;;;5065311;28;20036;-75
2021/07/26 08:53:06;;;;;;;32.50;25.85;;;26.30;67.50;;;;;;5063856;28;20427;-74
2021/07/26 08:55:34;;;;;;;26.30;23.77;;;26.40;66.90;;;;;;5068398;28;20033;-74
2021/07/26 08:58:00;;;;;;;25.10;22.58;;;26.30;66.60;;;;;;5067117;28;20111;-75
2021/07/26 09:00:26;;;;;;;25.85;23.35;;;26.10;66.50;;;;;;5051453;28;20105;-76
2021/07/26 09:02:53;;;;;;;25.98;23.48;;;25.90;66.40;;;;;;5067360;28;20135;-75
2021/07/26 09:05:20;;;;;;;28.75;24.88;;;25.70;66.60;;;;;;5067886;28;20094;-75
2021/07/26 09:07:48;;;;;;;25.27;21.90;;;25.60;66.90;;;;;;5068959;28;20047;-79
2021/07/26 09:10:17;;;;;;;25.33;22.73;;;25.70;66.40;;;;;;5069120;28;20351;-79
2021/07/26 09:12:44;;;;;;;30.00;24.52;;;25.80;66.20;;;;;;5068356;28;20082;-84
2021/07/26 09:15:31;;;;;;;23.00;20.75;;;25.90;65.80;;;;;;5069259;28;20067;-78
2021/07/26 09:18:06;;;;;;;23.50;21.25;;;26.10;65.40;;;;;;5068122;28;20033;-74
2021/07/26 09:20:39;;;;;;;22.25;19.88;;;26.20;65.20;;;;;;5070601;28;20060;-74
2021/07/26 09:23:17;;;;;;;26.10;19.70;;;26.20;65.00;;;;;;5069261;28;20024;-75
2021/07/26 09:25:51;;;;;;;21.45;19.20;;;26.20;64.80;;;;;;5068272;28;20062;-74
2021/07/26 09:28:21;;;;;;;21.27;19.17;;;26.10;64.90;;;;;;5068716;28;20387;-73
2021/07/26 09:30:49;;;;;;;20.65;18.60;;;26.10;65.00;;;;;;5069205;28;20043;-73
2021/07/26 09:33:16;;;;;;;22.17;20.05;;;26.20;65.00;;;;;;5067429;28;20064;-74
2021/07/26 09:35:44;;;;;;;21.65;19.42;;;26.20;65.00;;;;;;5068254;28;20051;-73
2021/07/26 09:38:11;;;;;;;22.85;18.42;;;26.20;64.90;;;;;;5067097;28;20035;-75
2021/07/26 09:40:37;;;;;;;25.20;21.15;;;26.10;65.00;;;;;;5067560;28;20610;-73
2021/07/26 09:43:24;;;;;;;22.50;20.27;;;26.10;65.30;;;;;;5068085;28;20388;-75
2021/07/26 09:45:55;;;;;;;24.83;20.17;;;26.10;65.30;;;;;;5057850;28;20029;-74
2021/07/26 09:48:26;;;;;;;24.05;21.70;;;26.20;65.10;;;;;;5062272;28;20119;-75
2021/07/26 09:50:54;;;;;;;23.15;20.85;;;26.30;65.10;;;;;;5068853;28;20455;-74
2021/07/26 09:53:24;;;;;;;23.33;20.63;;;26.40;65.00;;;;;;5066716;28;20101;-74
2021/07/26 09:55:52;;;;;;;28.30;20.17;;;26.40;64.90;;;;;;5067280;28;20032;-74
2021/07/26 09:58:39;;;;;;;24.25;21.80;;;26.40;64.90;;;;;;5068174;28;20044;-74
2021/07/26 10:01:07;;;;;;;29.58;23.00;;;26.40;64.80;;;;;;5063743;28;20464;-74
2021/07/26 10:03:33;;;;;;;22.95;20.77;;;26.40;64.60;;;;;;5068143;28;20047;-74
2021/07/26 10:06:00;;;;;;;24.15;21.67;;;26.50;64.50;;;;;;5068658;28;20442;-73
2021/07/26 10:08:28;;;;;;;23.83;21.27;;;26.60;64.60;;;;;;5061374;28;20072;-74
2021/07/26 10:10:54;;;;;;;24.52;21.20;;;26.70;64.60;;;;;;5068297;28;20038;-74
2021/07/26 10:13:21;;;;;;;23.27;20.60;;;26.80;64.40;;;;;;5067942;28;20123;-81
2021/07/26 10:15:49;;;;;;;21.70;19.50;;;26.90;64.00;;;;;;5068868;28;20094;-76
2021/07/26 10:18:15;;;;;;;20.77;18.23;;;27.00;63.80;;;;;;5068659;28;20063;-81
2021/07/26 10:20:47;;;;;;;20.77;16.60;;;27.00;63.50;;;;;;5067052;28;20029;-80
2021/07/26 10:23:19;;;;;;;17.67;16.08;;;27.00;63.10;;;;;;5066997;28;20520;-78
2021/07/26 10:26:02;;;;;;;18.20;16.35;;;27.00;63.10;;;;;;5082106;28;20119;-81
2021/07/26 10:28:38;;;;;;;20.13;16.20;;;27.00;63.00;;;;;;5065316;28;20025;-76
2021/07/26 10:31:32;;;;;;;18.33;16.00;;;27.00;63.00;;;;;;5066149;28;20146;-80
2021/07/26 10:34:06;;;;;;;19.67;16.20;;;27.00;62.70;;;;;;5068396;28;20453;-79
2021/07/26 10:36:44;;;;;;;16.00;14.40;;;27.00;62.50;;;;;;5087242;28;20032;-81
2021/07/26 10:39:10;;;;;;;15.82;14.25;;;27.10;62.40;;;;;;5074114;28;20040;-81
2021/07/26 10:41:42;;;;;;;22.70;16.27;;;27.10;62.30;;;;;;5068122;28;20060;-80
2021/07/26 10:44:17;;;;;;;16.60;14.85;;;27.10;61.80;;;;;;5066808;28;20273;-75
2021/07/26 10:47:05;;;;;;;16.25;14.75;;;27.10;61.60;;;;;;5068692;28;20044;-79
2021/07/26 10:49:50;;;;;;;17.77;14.25;;;27.10;61.50;;;;;;5067954;28;20100;-85
2021/07/26 10:52:22;;;;;;;16.33;14.63;;;27.10;61.50;;;;;;5067521;28;20400;-82
2021/07/26 10:54:49;;;;;;;15.55;13.95;;;27.20;61.20;;;;;;5049782;28;20078;-74
2021/07/26 10:57:35;;;;;;;15.10;13.50;;;27.20;61.10;;;;;;5067415;28;20037;-78
2021/07/26 11:00:13;;;;;;;13.57;12.15;;;27.30;61.00;;;;;;5067115;28;20035;-75
2021/07/26 11:02:44;;;;;;;13.52;12.23;;;27.30;60.60;;;;;;5066425;28;20032;-78
2021/07/26 11:05:28;;;;;;;12.95;11.68;;;27.30;60.40;;;;;;5065740;28;20039;-80
2021/07/26 11:08:25;;;;;;;14.45;13.15;;;27.40;60.30;;;;;;5065738;28;20135;-79
2021/07/26 11:10:56;;;;;;;13.20;12.00;;;27.50;59.90;;;;;;5047996;28;20560;-80
2021/07/26 11:13:23;;;;;;;16.00;12.88;;;27.50;59.90;;;;;;5065371;28;20507;-84
2021/07/26 11:15:51;;;;;;;14.13;12.70;;;27.50;59.50;;;;;;5064142;28;20058;-75
2021/07/26 11:18:24;;;;;;;15.52;12.73;;;27.60;59.40;;;;;;5065120;28;20368;-81
2021/07/26 11:20:59;;;;;;;15.48;11.82;;;27.70;59.20;;;;;;5067428;28;20055;-81
2021/07/26 11:23:39;;;;;;;13.88;12.45;;;27.70;59.10;;;;;;5067288;28;20255;-84
2021/07/26 11:26:14;;;;;;;12.18;11.07;;;27.70;59.10;;;;;;5066909;28;20029;-79
2021/07/26 11:28:40;;;;;;;13.00;11.63;;;27.80;58.80;;;;;;5066723;28;20077;-80
2021/07/26 11:31:06;;;;;;;14.10;12.10;;;27.90;58.80;;;;;;5066766;28;20082;-81
2021/07/26 11:33:33;;;;;;;13.63;12.05;;;27.90;58.50;;;;;;5066677;28;20032;-80
2021/07/26 11:36:07;;;;;;;12.65;11.35;;;27.90;58.20;;;;;;5065416;28;20507;-76
2021/07/26 11:38:53;;;;;;;12.68;10.43;;;28.00;57.90;;;;;;5067176;28;20484;-75
2021/07/26 11:41:20;;;;;;;12.55;10.85;;;28.00;57.80;;;;;;5066858;28;20051;-78
2021/07/26 11:43:48;;;;;;;12.40;11.15;;;28.10;57.60;;;;;;5065101;28;20480;-78
2021/07/26 11:46:14;;;;;;;13.73;11.18;;;28.20;57.50;;;;;;5066838;28;20392;-74
2021/07/26 11:48:40;;;;;;;16.65;10.65;;;28.30;57.30;;;;;;5065678;28;20479;-75
2021/07/26 11:51:27;;;;;;;12.45;11.15;;;28.30;57.10;;;;;;5082121;28;20056;-74
2021/07/26 11:54:07;;;;;;;12.35;11.18;;;28.20;56.70;;;;;;5066773;28;20433;-76
2021/07/26 11:56:33;;;;;;;12.68;11.40;;;28.20;56.70;;;;;;5066344;28;20182;-78
2021/07/26 11:59:16;;;;;;;12.93;11.70;;;28.10;57.00;;;;;;5065970;28;20048;-77
2021/07/26 12:01:49;;;;;;;15.75;12.30;;;28.10;57.00;;;;;;5065556;28;20029;-75
2021/07/26 12:04:16;;;;;;;18.73;17.02;;;28.10;56.60;;;;;;5065009;28;20036;-76
2021/07/26 12:06:59;;;;;;;19.45;17.48;;;28.20;56.70;;;;;;5066604;28;20032;-77
2021/07/26 12:09:25;;;;;;;15.82;13.80;;;28.30;56.70;;;;;;5056145;28;20081;-76
2021/07/26 12:12:07;;;;;;;11.73;10.60;;;28.30;56.70;;;;;;5046341;28;20432;-79
2021/07/26 12:14:33;;;;;;;12.55;10.73;;;28.40;56.60;;;;;;5065624;28;20070;-76
2021/07/26 12:17:01;;;;;;;10.13;8.93;;;28.50;56.40;;;;;;5065840;28;20344;-74
2021/07/26 12:19:28;;;;;;;12.90;9.70;;;28.60;56.30;;;;;;5065719;28;20052;-74
2021/07/26 12:21:55;;;;;;;9.95;8.98;;;28.60;56.10;;;;;;5048214;28;20033;-73
2021/07/26 12:24:58;;;;;;;10.07;9.02;;;28.70;56.70;;;;;;5061831;28;20135;-74
2021/07/26 12:27:35;;;;;;;9.95;7.18;;;28.80;55.90;;;;;;5056638;28;20058;-73
2021/07/26 12:30:10;;;;;;;8.00;7.20;;;28.90;55.70;;;;;;5060551;28;20028;-73
2021/07/26 12:32:50;;;;;;;9.38;7.07;;;29.00;55.30;;;;;;5065188;28;20472;-74
2021/07/26 12:35:24;;;;;;;7.50;6.75;;;29.00;54.90;;;;;;5063389;28;20127;-76
2021/07/26 12:38:15;;;;;;;8.30;7.43;;;29.10;54.90;;;;;;5065278;28;20043;-74